createdAt,value
2019-01-23T00:01:17.113Z,-3.47
2019-01-23T00:03:44.061Z,-3.59
2019-01-23T00:06:11.020Z,-3.71
2019-01-23T00:08:37.950Z,-3.74
2019-01-23T00:11:04.871Z,-3.74
2019-01-23T00:13:31.829Z,-3.61
2019-01-23T00:15:58.733Z,-3.63
2019-01-23T00:18:25.628Z,-3.64
2019-01-23T00:20:52.565Z,-3.63
2019-01-23T00:23:19.466Z,-3.47
2019-01-23T00:25:47.367Z,-3.62
2019-01-23T00:28:14.330Z,-3.64
2019-01-23T00:30:41.321Z,-3.72
2019-01-23T00:33:08.212Z,-3.80
2019-01-23T00:35:35.129Z,-3.75
2019-01-23T00:38:02.040Z,-3.84
2019-01-23T00:40:28.979Z,-3.77
2019-01-23T00:42:55.897Z,-3.65
2019-01-23T00:45:22.843Z,-3.54
2019-01-23T00:47:49.812Z,-3.55
2019-01-23T00:50:16.738Z,-3.47
2019-01-23T00:52:43.628Z,-3.45
2019-01-23T00:55:11.728Z,-3.54
2019-01-23T00:57:38.635Z,-3.49
2019-01-23T01:00:10.076Z,-3.35
2019-01-23T01:02:36.974Z,-3.45
2019-01-23T01:05:04.715Z,-3.35
2019-01-23T01:07:31.635Z,-3.29
2019-01-23T01:09:58.579Z,-3.16
2019-01-23T01:12:25.474Z,-3.10
2019-01-23T01:14:52.429Z,-3.36
2019-01-23T01:17:19.327Z,-3.37
2019-01-23T01:19:46.247Z,-3.31
2019-01-23T01:22:13.136Z,-3.12
2019-01-23T01:24:40.039Z,-3.24
2019-01-23T01:27:06.965Z,-3.16
2019-01-23T01:29:33.863Z,-3.21
2019-01-23T01:32:00.885Z,-3.21
2019-01-23T01:34:27.766Z,-3.01
2019-01-23T01:36:54.690Z,-3.09
2019-01-23T01:39:21.557Z,-3.16
2019-01-23T01:41:48.457Z,-3.07
2019-01-23T01:44:15.361Z,-3.01
2019-01-23T01:46:42.316Z,-3.03
2019-01-23T01:49:09.192Z,-3.09
2019-01-23T01:51:36.189Z,-3.03
2019-01-23T01:54:03.059Z,-3.09
2019-01-23T01:56:30.000Z,-3.07
2019-01-23T01:59:02.585Z,-3.06
2019-01-23T02:01:25.741Z,-3.15
2019-01-23T02:03:52.625Z,-3.04
2019-01-23T02:06:19.574Z,-3.15
2019-01-23T02:08:46.455Z,-3.15
2019-01-23T02:11:13.464Z,-3.00
2019-01-23T02:13:40.320Z,-2.93
2019-01-23T02:16:07.255Z,-2.97
2019-01-23T02:18:34.181Z,-3.04
2019-01-23T02:21:01.105Z,-3.04
2019-01-23T02:23:27.989Z,-2.77
2019-01-23T02:25:54.948Z,-2.80
2019-01-23T02:28:21.847Z,-2.84
2019-01-23T02:30:48.782Z,-2.93
2019-01-23T02:33:15.658Z,-2.74
2019-01-23T02:35:42.636Z,-2.76
2019-01-23T02:38:09.536Z,-2.69
2019-01-23T02:40:36.464Z,-2.81
2019-01-23T02:43:03.351Z,-2.78
2019-01-23T02:45:30.279Z,-2.73
2019-01-23T02:47:57.165Z,-2.76
2019-01-23T02:50:24.127Z,-2.85
2019-01-23T02:52:51.013Z,-2.81
2019-01-23T02:55:17.992Z,-2.95
2019-01-23T02:57:44.921Z,-2.78
2019-01-23T03:00:16.518Z,-2.79
2019-01-23T03:02:43.447Z,-2.73
2019-01-23T03:05:12.546Z,-2.85
2019-01-23T03:07:39.529Z,-2.82
2019-01-23T03:10:08.203Z,-2.70
2019-01-23T03:12:35.116Z,-2.59
2019-01-23T03:15:02.006Z,-2.52
2019-01-23T03:17:28.946Z,-2.58
2019-01-23T03:19:55.878Z,-2.73
2019-01-23T03:22:22.844Z,-2.74
2019-01-23T03:24:49.671Z,-2.84
2019-01-23T03:27:16.585Z,-2.73
2019-01-23T03:29:57.336Z,-2.70
2019-01-23T03:32:24.299Z,-2.62
2019-01-23T03:34:51.183Z,-2.70
2019-01-23T03:37:18.159Z,-2.70
2019-01-23T03:39:45.067Z,-2.63
2019-01-23T03:42:12.018Z,-2.65
2019-01-23T03:44:38.918Z,-2.61
2019-01-23T03:47:05.903Z,-2.64
2019-01-23T03:49:32.858Z,-2.62
2019-01-23T03:51:59.798Z,-2.56
2019-01-23T03:54:26.737Z,-2.53
2019-01-23T03:56:53.653Z,-2.55
2019-01-23T03:59:20.600Z,-2.69
2019-01-23T04:01:47.540Z,-2.55
2019-01-23T04:04:14.429Z,-2.61
2019-01-23T04:06:41.404Z,-2.44
2019-01-23T04:09:08.287Z,-2.49
2019-01-23T04:11:35.190Z,-2.50
2019-01-23T04:14:02.109Z,-2.71
2019-01-23T04:16:28.983Z,-2.69
2019-01-23T04:18:55.923Z,-2.58
2019-01-23T04:21:22.845Z,-2.66
2019-01-23T04:23:49.750Z,-2.55
2019-01-23T04:26:16.668Z,-2.54
2019-01-23T04:28:43.607Z,-2.50
2019-01-23T04:31:10.514Z,-2.63
2019-01-23T04:33:37.433Z,-2.55
2019-01-23T04:36:04.359Z,-2.55
2019-01-23T04:38:31.318Z,-2.55
2019-01-23T04:40:58.231Z,-2.61
2019-01-23T04:43:25.206Z,-2.74
2019-01-23T04:45:52.121Z,-2.69
2019-01-23T04:48:19.068Z,-2.71
2019-01-23T04:51:07.069Z,-2.61
2019-01-23T04:53:37.634Z,-2.62
2019-01-23T04:56:04.579Z,-2.51
2019-01-23T04:58:31.522Z,-2.52
2019-01-23T05:00:58.443Z,-2.50
2019-01-23T05:03:25.358Z,-2.49
2019-01-23T05:05:52.334Z,-2.51
2019-01-23T05:08:19.268Z,-2.54
2019-01-23T05:10:46.162Z,-2.60
2019-01-23T05:13:13.103Z,-2.61
2019-01-23T05:15:40.100Z,-2.68
2019-01-23T05:18:06.994Z,-2.57
2019-01-23T05:20:33.934Z,-2.67
2019-01-23T05:23:00.822Z,-2.50
2019-01-23T05:25:27.759Z,-2.58
2019-01-23T05:27:54.678Z,-2.50
2019-01-23T05:30:22.889Z,-2.45
2019-01-23T05:32:49.797Z,-2.45
2019-01-23T05:35:17.351Z,-2.37
2019-01-23T05:37:44.515Z,-2.32
2019-01-23T05:40:11.845Z,-2.37
2019-01-23T05:42:38.767Z,-2.37
2019-01-23T05:45:05.800Z,-2.37
2019-01-23T05:47:32.698Z,-2.46
2019-01-23T05:49:59.640Z,-2.41
2019-01-23T05:52:26.563Z,-2.42
2019-01-23T05:54:53.508Z,-2.47
2019-01-23T05:57:20.416Z,-2.39
2019-01-23T05:59:47.364Z,-2.29
2019-01-23T06:02:14.317Z,-2.37
2019-01-23T06:04:41.251Z,-2.15
2019-01-23T06:07:08.218Z,-2.21
2019-01-23T06:09:35.139Z,-2.27
2019-01-23T06:12:02.041Z,-2.31
2019-01-23T06:14:29.063Z,-2.29
2019-01-23T06:16:55.970Z,-2.33
2019-01-23T06:19:22.909Z,-2.49
2019-01-23T06:21:49.806Z,-2.36
2019-01-23T06:24:16.750Z,-2.34
2019-01-23T06:26:43.666Z,-2.33
2019-01-23T06:29:10.577Z,-2.41
2019-01-23T06:31:37.553Z,-2.45
2019-01-23T06:34:04.466Z,-2.28
2019-01-23T06:36:31.475Z,-2.44
2019-01-23T06:38:58.393Z,-2.53
2019-01-23T06:41:25.318Z,-2.37
2019-01-23T06:43:52.231Z,-2.37
2019-01-23T06:46:19.161Z,-2.35
2019-01-23T06:48:46.073Z,-2.28
2019-01-23T06:51:13.050Z,-2.47
2019-01-23T06:53:40.013Z,-2.48
2019-01-23T06:56:06.967Z,-2.54
2019-01-23T06:58:33.919Z,-2.78
2019-01-23T07:01:00.884Z,-2.78
2019-01-23T07:03:27.804Z,-2.68
2019-01-23T07:05:54.805Z,-2.67
2019-01-23T07:08:21.716Z,-2.66
2019-01-23T07:10:48.657Z,-2.72
2019-01-23T07:13:15.574Z,-2.73
2019-01-23T07:15:42.515Z,-2.70
2019-01-23T07:18:09.429Z,-2.67
2019-01-23T07:20:36.378Z,-2.67
2019-01-23T07:23:03.277Z,-2.59
2019-01-23T07:25:30.247Z,-2.73
2019-01-23T07:27:57.148Z,-2.72
2019-01-23T07:30:29.197Z,-2.78
2019-01-23T07:32:56.141Z,-2.77
2019-01-23T07:35:23.040Z,-2.81
2019-01-23T07:37:49.985Z,-2.78
2019-01-23T07:40:16.892Z,-2.82
2019-01-23T07:42:43.826Z,-2.86
2019-01-23T07:45:12.110Z,-2.82
2019-01-23T07:47:39.070Z,-2.74
2019-01-23T07:50:07.280Z,-2.88
2019-01-23T07:52:34.266Z,-2.85
2019-01-23T07:55:01.190Z,-2.85
2019-01-23T07:57:28.144Z,-2.71
2019-01-23T07:59:55.023Z,-2.76
2019-01-23T08:02:21.963Z,-2.78
2019-01-23T08:04:48.884Z,-2.80
2019-01-23T08:07:15.856Z,-2.89
2019-01-23T08:09:42.906Z,-2.93
2019-01-23T08:12:10.873Z,-2.98
2019-01-23T08:14:37.887Z,-2.94
2019-01-23T08:17:04.913Z,-2.98
2019-01-23T08:19:31.803Z,-2.96
2019-01-23T08:21:58.759Z,-2.95
2019-01-23T08:24:25.710Z,-2.74
2019-01-23T08:26:52.709Z,-2.75
2019-01-23T08:29:19.616Z,-2.78
2019-01-23T08:31:46.672Z,-2.65
2019-01-23T08:34:13.585Z,-2.76
2019-01-23T08:36:40.530Z,-2.68
2019-01-23T08:39:08.014Z,-2.68
2019-01-23T08:41:34.923Z,-2.64
2019-01-23T08:44:01.951Z,-2.70
2019-01-23T08:46:28.876Z,-2.72
2019-01-23T08:48:55.834Z,-2.70
2019-01-23T08:51:22.784Z,-2.61
2019-01-23T08:53:49.758Z,-2.55
2019-01-23T08:56:16.684Z,-2.67
2019-01-23T08:58:44.548Z,-2.78
2019-01-23T09:01:11.470Z,-2.82
2019-01-23T09:03:38.405Z,-2.72
2019-01-23T09:06:05.373Z,-2.68
2019-01-23T09:08:37.575Z,-2.55
2019-01-23T09:11:01.132Z,-2.49
2019-01-23T09:13:28.130Z,-2.49
2019-01-23T09:15:55.060Z,-2.63
2019-01-23T09:18:22.005Z,-2.51
2019-01-23T09:20:48.960Z,-2.41
2019-01-23T09:23:15.926Z,-2.28
2019-01-23T09:25:49.530Z,-2.28
2019-01-23T09:28:11.725Z,-2.17
2019-01-23T09:30:52.694Z,-2.24
2019-01-23T09:33:46.430Z,-2.06
2019-01-23T09:36:43.217Z,-2.18
2019-01-23T09:40:03.973Z,-2.09
2019-01-23T09:43:02.927Z,-2.03
2019-01-23T09:46:12.925Z,-2.12
2019-01-23T09:49:23.463Z,-1.95
2019-01-23T09:52:17.908Z,-1.90
2019-01-23T09:54:44.894Z,-1.96
2019-01-23T09:57:11.823Z,-2.09
2019-01-23T09:59:39.885Z,-1.91
2019-01-23T10:02:06.802Z,-1.92
2019-01-23T10:04:33.825Z,-1.83
2019-01-23T10:07:00.769Z,-1.95
2019-01-23T10:09:27.710Z,-1.90
2019-01-23T10:11:54.645Z,-1.93
2019-01-23T10:14:21.594Z,-1.81
2019-01-23T10:16:48.631Z,-1.76
2019-01-23T10:19:15.620Z,-1.82
2019-01-23T10:21:42.528Z,-1.87
2019-01-23T10:24:09.487Z,-1.80
2019-01-23T10:26:57.666Z,-1.86
2019-01-23T10:29:25.424Z,-1.83
2019-01-23T10:31:52.325Z,-2.14
2019-01-23T10:34:19.256Z,-2.00
2019-01-23T10:36:46.183Z,-2.01
2019-01-23T10:39:13.142Z,-2.01
2019-01-23T10:41:40.095Z,-2.00
2019-01-23T10:44:07.045Z,-1.90
2019-01-23T10:46:34.055Z,-1.74
2019-01-23T10:49:01.011Z,-1.71
2019-01-23T10:51:27.914Z,-1.65
2019-01-23T10:53:54.820Z,-1.41
2019-01-23T10:56:21.775Z,-1.53
2019-01-23T10:58:48.677Z,-1.79
2019-01-23T11:01:15.644Z,-1.87
2019-01-23T11:03:42.561Z,-1.91
2019-01-23T11:06:09.532Z,-1.62
2019-01-23T11:08:36.475Z,-1.66
2019-01-23T11:11:03.740Z,-1.39
2019-01-23T11:13:30.671Z,-1.57
2019-01-23T11:15:57.769Z,-1.49
2019-01-23T11:18:24.721Z,-1.53
2019-01-23T11:20:51.644Z,-1.56
2019-01-23T11:23:21.061Z,-1.27
2019-01-23T11:25:48.025Z,-1.24
2019-01-23T11:28:14.934Z,-1.12
2019-01-23T11:30:42.827Z,-1.22
2019-01-23T11:33:09.732Z,-1.40
2019-01-23T11:35:37.406Z,-1.39
2019-01-23T11:38:05.159Z,-1.13
2019-01-23T11:40:32.173Z,-1.13
2019-01-23T11:42:59.164Z,-1.09
2019-01-23T11:45:26.261Z,-1.12
2019-01-23T11:47:53.190Z,-1.03
2019-01-23T11:50:21.966Z,-1.04
2019-01-23T11:52:49.584Z,-0.89
2019-01-23T11:55:16.852Z,-0.89
2019-01-23T11:57:44.010Z,-0.62
2019-01-23T12:00:16.254Z,-0.82
2019-01-23T12:02:43.162Z,-0.74
2019-01-23T12:05:11.799Z,-0.71
2019-01-23T12:07:38.932Z,-0.72
2019-01-23T12:10:08.199Z,-0.66
2019-01-23T12:12:35.188Z,-0.76
2019-01-23T12:15:02.094Z,-0.64
2019-01-23T12:17:29.019Z,-0.60
2019-01-23T12:19:56.098Z,-0.53
2019-01-23T12:22:23.064Z,-0.66
2019-01-23T12:24:49.958Z,-0.96
2019-01-23T12:27:16.980Z,-0.97
2019-01-23T12:29:43.884Z,-0.80
2019-01-23T12:32:10.819Z,-0.74
2019-01-23T12:34:37.769Z,-1.01
2019-01-23T12:37:04.750Z,-0.89
2019-01-23T12:39:31.682Z,-0.98
2019-01-23T12:41:58.630Z,-0.83
2019-01-23T12:44:25.640Z,-0.97
2019-01-23T12:46:52.585Z,-1.13
2019-01-23T12:49:19.510Z,-0.68
2019-01-23T12:51:46.451Z,-1.20
2019-01-23T12:54:13.390Z,-1.08
2019-01-23T12:56:40.506Z,-1.08
2019-01-23T12:59:22.562Z,-0.98
2019-01-23T13:02:09.823Z,-1.07
2019-01-23T13:04:37.074Z,-1.13
2019-01-23T13:07:04.147Z,-1.25
2019-01-23T13:09:31.401Z,-1.45
2019-01-23T13:11:58.388Z,-1.47
2019-01-23T13:14:26.198Z,-1.24
2019-01-23T13:16:53.300Z,-1.24
2019-01-23T13:19:20.218Z,-1.21
2019-01-23T13:21:47.177Z,-1.56
2019-01-23T13:24:14.148Z,-1.14
2019-01-23T13:26:41.198Z,-1.03
2019-01-23T13:29:08.112Z,-1.09
2019-01-23T13:31:35.324Z,-1.06
2019-01-23T13:34:02.471Z,-0.98
2019-01-23T13:36:29.383Z,-0.78
2019-01-23T13:38:56.435Z,-0.73
2019-01-23T13:41:23.830Z,-0.58
2019-01-23T13:43:50.760Z,-1.10
2019-01-23T13:46:17.667Z,-0.96
2019-01-23T13:48:44.796Z,-0.89
2019-01-23T13:51:11.722Z,-0.61
2019-01-23T13:53:38.718Z,-0.69
2019-01-23T13:56:05.698Z,-0.92
2019-01-23T13:58:32.849Z,-0.76
2019-01-23T14:00:59.742Z,-0.96
2019-01-23T14:03:26.691Z,-0.86
2019-01-23T14:05:53.628Z,-0.83
2019-01-23T14:08:20.577Z,-0.97
2019-01-23T14:10:47.487Z,-1.24
2019-01-23T14:13:14.399Z,-1.19
2019-01-23T14:15:41.342Z,-1.20
2019-01-23T14:18:08.708Z,-1.27
2019-01-23T14:20:35.624Z,-1.27
2019-01-23T14:23:02.718Z,-1.28
2019-01-23T14:25:29.629Z,-1.27
2019-01-23T14:27:56.610Z,-1.17
2019-01-23T14:30:29.436Z,-1.14
2019-01-23T14:32:56.381Z,-1.23
2019-01-23T14:35:23.397Z,-1.29
2019-01-23T14:37:50.353Z,-1.41
2019-01-23T14:40:17.389Z,-1.42
2019-01-23T14:42:44.699Z,-1.39
2019-01-23T14:45:11.777Z,-1.47
2019-01-23T14:47:38.748Z,-1.64
2019-01-23T14:50:07.980Z,-1.52
2019-01-23T14:52:34.961Z,-1.48
2019-01-23T14:55:01.905Z,-1.50
2019-01-23T14:57:28.834Z,-1.56
2019-01-23T14:59:55.779Z,-1.47
2019-01-23T15:02:22.707Z,-1.50
2019-01-23T15:04:49.670Z,-1.59
2019-01-23T15:07:16.634Z,-1.65
2019-01-23T15:09:43.670Z,-1.61
2019-01-23T15:12:10.757Z,-1.61
2019-01-23T15:14:37.709Z,-1.79
2019-01-23T15:17:04.700Z,-1.73
2019-01-23T15:19:31.719Z,-1.73
2019-01-23T15:21:58.661Z,-1.69
2019-01-23T15:24:25.704Z,-1.67
2019-01-23T15:26:52.630Z,-1.58
2019-01-23T15:29:19.650Z,-1.68
2019-01-23T15:31:46.624Z,-1.71
2019-01-23T15:34:13.592Z,-1.76
2019-01-23T15:36:40.585Z,-1.86
2019-01-23T15:39:08.042Z,-1.81
2019-01-23T15:41:35.432Z,-1.76
2019-01-23T15:44:03.429Z,-1.87
2019-01-23T15:46:30.379Z,-1.73
2019-01-23T15:48:57.380Z,-1.59
2019-01-23T15:51:24.310Z,-1.64
2019-01-23T15:53:51.253Z,-1.70
2019-01-23T15:56:18.171Z,-1.85
2019-01-23T15:58:45.123Z,-1.82
2019-01-23T16:01:12.064Z,-1.91
2019-01-23T16:03:39.079Z,-1.93
2019-01-23T16:06:06.080Z,-1.93
2019-01-23T16:08:32.993Z,-1.88
2019-01-23T16:10:59.925Z,-1.91
2019-01-23T16:13:26.988Z,-1.93
2019-01-23T16:15:54.004Z,-2.00
2019-01-23T16:18:20.942Z,-1.94
2019-01-23T16:20:47.939Z,-1.96
2019-01-23T16:23:14.901Z,-1.95
2019-01-23T16:25:41.879Z,-1.96
2019-01-23T16:28:08.987Z,-1.93
2019-01-23T16:30:42.402Z,-2.05
2019-01-23T16:33:09.557Z,-2.00
2019-01-23T16:35:38.886Z,-2.01
2019-01-23T16:38:06.970Z,-2.00
2019-01-23T16:40:34.006Z,-1.97
2019-01-23T16:43:00.952Z,-2.03
2019-01-23T16:45:28.108Z,-2.02
2019-01-23T16:47:55.144Z,-1.90
2019-01-23T16:50:23.363Z,-1.93
2019-01-23T16:52:50.539Z,-2.00
2019-01-23T16:55:17.620Z,-2.01
2019-01-23T16:57:45.762Z,-2.12
2019-01-23T17:00:15.300Z,-2.14
2019-01-23T17:02:42.429Z,-2.20
2019-01-23T17:05:12.538Z,-2.33
2019-01-23T17:07:39.787Z,-2.26
2019-01-23T17:10:10.413Z,-2.43
2019-01-23T17:12:37.333Z,-2.26
2019-01-23T17:15:04.922Z,-2.24
2019-01-23T17:17:31.835Z,-2.36
2019-01-23T17:19:59.228Z,-2.48
2019-01-23T17:22:26.426Z,-2.35
2019-01-23T17:24:53.433Z,-2.42
2019-01-23T17:27:21.536Z,-2.42
2019-01-23T17:29:48.531Z,-2.40
2019-01-23T17:32:15.496Z,-2.51
2019-01-23T17:34:42.468Z,-2.42
2019-01-23T17:37:09.425Z,-2.39
2019-01-23T17:39:36.456Z,-2.53
2019-01-23T17:42:03.640Z,-2.56
2019-01-23T17:44:30.563Z,-2.73
2019-01-23T17:46:57.622Z,-2.67
2019-01-23T17:49:24.613Z,-2.64
2019-01-23T17:51:51.761Z,-2.70
2019-01-23T17:54:19.046Z,-2.63
2019-01-23T17:56:46.217Z,-2.62
2019-01-23T17:59:13.161Z,-2.76
2019-01-23T18:01:40.209Z,-2.73
2019-01-23T18:04:07.130Z,-2.74
2019-01-23T18:06:34.128Z,-2.74
2019-01-23T18:09:01.060Z,-2.89
2019-01-23T18:11:28.303Z,-2.85
2019-01-23T18:13:55.241Z,-2.91
2019-01-23T18:16:22.360Z,-2.89
2019-01-23T18:18:49.297Z,-3.03
2019-01-23T18:21:16.369Z,-3.11
2019-01-23T18:23:43.396Z,-3.04
2019-01-23T18:26:11.766Z,-3.20
2019-01-23T18:28:39.295Z,-3.18
2019-01-23T18:31:23.336Z,-3.14
2019-01-23T18:34:18.533Z,-3.34
2019-01-23T18:36:57.345Z,-3.14
2019-01-23T18:39:51.324Z,-3.34
2019-01-23T18:42:56.988Z,-3.22
2019-01-23T18:46:01.525Z,-3.41
2019-01-23T18:49:02.588Z,-3.42
2019-01-23T18:51:44.417Z,-3.47
2019-01-23T18:54:11.403Z,-3.53
2019-01-23T18:56:38.388Z,-3.52
2019-01-23T18:59:05.521Z,-3.49
2019-01-23T19:01:32.605Z,-3.54
2019-01-23T19:03:59.526Z,-3.50
2019-01-23T19:06:26.835Z,-3.45
2019-01-23T19:08:53.750Z,-3.69
2019-01-23T19:11:20.670Z,-3.70
2019-01-23T19:13:48.781Z,-3.81
2019-01-23T19:16:17.050Z,-3.88
2019-01-23T19:18:44.034Z,-3.93
2019-01-23T19:21:10.994Z,-3.69
2019-01-23T19:23:37.941Z,-3.73
2019-01-23T19:26:04.873Z,-3.84
2019-01-23T19:28:31.825Z,-3.72
2019-01-23T19:30:58.755Z,-3.91
2019-01-23T19:33:25.800Z,-4.05
2019-01-23T19:35:52.723Z,-3.87
2019-01-23T19:38:19.848Z,-3.98
2019-01-23T19:40:47.072Z,-4.01
2019-01-23T19:43:14.253Z,-4.16
2019-01-23T19:45:41.227Z,-4.21
2019-01-23T19:48:08.293Z,-4.33
2019-01-23T19:50:35.409Z,-4.30
2019-01-23T19:53:02.360Z,-4.34
2019-01-23T19:55:29.447Z,-4.44
2019-01-23T19:57:56.600Z,-4.45
2019-01-23T20:00:23.721Z,-4.56
2019-01-23T20:02:50.975Z,-4.50
2019-01-23T20:05:23.592Z,-4.42
2019-01-23T20:07:51.008Z,-4.53
2019-01-23T20:10:18.893Z,-4.59
2019-01-23T20:12:45.830Z,-4.69
2019-01-23T20:15:14.475Z,-4.72
2019-01-23T20:17:41.462Z,-4.66
2019-01-23T20:20:09.624Z,-4.70
2019-01-23T20:22:36.633Z,-4.68
2019-01-23T20:25:05.085Z,-4.72
2019-01-23T20:27:32.135Z,-4.68
2019-01-23T20:29:59.120Z,-4.75
2019-01-23T20:32:25.989Z,-4.85
2019-01-23T20:34:52.966Z,-4.86
2019-01-23T20:37:23.457Z,-4.87
2019-01-23T20:39:48.732Z,-4.89
2019-01-23T20:42:15.725Z,-4.83
2019-01-23T20:44:42.745Z,-4.90
2019-01-23T20:47:09.680Z,-4.86
2019-01-23T20:49:36.922Z,-4.92
2019-01-23T20:52:03.845Z,-4.99
2019-01-23T20:54:31.089Z,-5.02
2019-01-23T20:56:58.019Z,-4.98
2019-01-23T20:59:24.971Z,-5.01
2019-01-23T21:01:52.122Z,-5.11
2019-01-23T21:04:19.059Z,-4.91
2019-01-23T21:06:46.012Z,-4.96
2019-01-23T21:09:12.928Z,-5.03
2019-01-23T21:11:39.874Z,-4.96
2019-01-23T21:14:06.916Z,-4.85
2019-01-23T21:16:33.829Z,-4.89
2019-01-23T21:19:00.768Z,-4.80
2019-01-23T21:21:27.695Z,-4.82
2019-01-23T21:23:54.655Z,-4.84
2019-01-23T21:26:21.615Z,-4.87
2019-01-23T21:28:48.610Z,-4.63
2019-01-23T21:31:15.572Z,-4.76
2019-01-23T21:33:42.772Z,-4.85
2019-01-23T21:36:09.734Z,-4.94
2019-01-23T21:38:36.651Z,-4.91
2019-01-23T21:41:03.673Z,-5.06
2019-01-23T21:43:30.774Z,-5.26
2019-01-23T21:45:57.825Z,-5.34
2019-01-23T21:48:24.753Z,-5.29
2019-01-23T21:50:52.088Z,-5.27
2019-01-23T21:53:19.004Z,-5.34
2019-01-23T21:55:46.503Z,-5.41
2019-01-23T21:58:13.485Z,-5.37
2019-01-23T22:00:45.745Z,-5.51
2019-01-23T22:03:12.697Z,-5.52
2019-01-23T22:05:39.872Z,-5.67
2019-01-23T22:08:07.192Z,-5.65
2019-01-23T22:10:34.243Z,-5.63
2019-01-23T22:13:01.276Z,-5.53
2019-01-23T22:15:28.368Z,-5.62
2019-01-23T22:17:55.327Z,-5.54
2019-01-23T22:20:22.471Z,-5.66
2019-01-23T22:22:49.415Z,-5.75
2019-01-23T22:25:18.142Z,-5.75
2019-01-23T22:27:45.231Z,-5.79
2019-01-23T22:30:17.520Z,-5.80
2019-01-23T22:32:44.659Z,-5.77
2019-01-23T22:35:11.820Z,-5.84
2019-01-23T22:37:38.871Z,-5.69
2019-01-23T22:40:07.803Z,-5.70
2019-01-23T22:42:34.988Z,-5.71
2019-01-23T22:45:01.954Z,-5.61
2019-01-23T22:47:28.874Z,-5.79
2019-01-23T22:49:55.786Z,-5.79
2019-01-23T22:52:22.738Z,-5.71
2019-01-23T22:54:49.641Z,-5.70
2019-01-23T22:57:16.759Z,-5.76
2019-01-23T22:59:43.701Z,-5.76
2019-01-23T23:02:10.766Z,-5.70
2019-01-23T23:04:37.815Z,-5.82
2019-01-23T23:07:05.461Z,-5.86
2019-01-23T23:09:32.487Z,-5.94
2019-01-23T23:11:59.509Z,-5.96
2019-01-23T23:14:26.611Z,-5.78
2019-01-23T23:16:53.597Z,-5.69
2019-01-23T23:19:20.535Z,-5.63
2019-01-23T23:21:47.549Z,-5.71
2019-01-23T23:24:14.471Z,-5.73
2019-01-23T23:26:41.420Z,-5.79
2019-01-23T23:29:08.352Z,-5.76
2019-01-23T23:31:35.328Z,-5.64
2019-01-23T23:34:02.282Z,-5.74
2019-01-23T23:36:29.258Z,-5.89
2019-01-23T23:38:56.340Z,-5.91
2019-01-23T23:41:23.299Z,-5.76
2019-01-23T23:43:50.335Z,-5.76
2019-01-23T23:46:20.207Z,-5.80
2019-01-23T23:48:47.127Z,-5.77
2019-01-23T23:51:14.098Z,-5.97
2019-01-23T23:53:41.025Z,-5.97
2019-01-23T23:56:08.026Z,-6.00
2019-01-23T23:58:34.943Z,-6.04
